sensor_id;sensor_type;location;lat;lon;timestamp;P1;durP1;ratioP1;P2;durP2;ratioP2
7432;SDS011;32233;49.500;7.764;2022-12-18T00:01:52;45.17;;;19.63;;
7432;SDS011;32233;49.500;7.764;2022-12-18T00:04:20;43.23;;;18.83;;
7432;SDS011;32233;49.500;7.764;2022-12-18T00:06:49;44.90;;;19.00;;
7432;SDS011;32233;49.500;7.764;2022-12-18T00:09:16;41.07;;;18.97;;
7432;SDS011;32233;49.500;7.764;2022-12-18T00:11:43;44.97;;;18.50;;
7432;SDS011;32233;49.500;7.764;2022-12-18T00:14:12;44.00;;;19.93;;
7432;SDS011;32233;49.500;7.764;2022-12-18T00:16:40;42.07;;;18.03;;
7432;SDS011;32233;49.500;7.764;2022-12-18T00:19:09;42.97;;;19.00;;
7432;SDS011;32233;49.500;7.764;2022-12-18T00:21:36;40.40;;;18.80;;
7432;SDS011;32233;49.500;7.764;2022-12-18T00:24:06;41.80;;;18.70;;
7432;SDS011;32233;49.500;7.764;2022-12-18T00:26:33;41.10;;;18.00;;
7432;SDS011;32233;49.500;7.764;2022-12-18T00:29:03;40.63;;;19.43;;
7432;SDS011;32233;49.500;7.764;2022-12-18T00:31:34;45.60;;;19.97;;
7432;SDS011;32233;49.500;7.764;2022-12-18T00:34:01;42.67;;;18.63;;
7432;SDS011;32233;49.500;7.764;2022-12-18T00:36:29;39.60;;;17.93;;
7432;SDS011;32233;49.500;7.764;2022-12-18T00:38:58;41.63;;;18.23;;
7432;SDS011;32233;49.500;7.764;2022-12-18T00:41:26;41.07;;;18.27;;
7432;SDS011;32233;49.500;7.764;2022-12-18T00:44:13;42.47;;;17.33;;
7432;SDS011;32233;49.500;7.764;2022-12-18T00:46:41;46.10;;;19.00;;
7432;SDS011;32233;49.500;7.764;2022-12-18T00:49:08;42.83;;;18.67;;
7432;SDS011;32233;49.500;7.764;2022-12-18T00:51:35;45.63;;;19.60;;
7432;SDS011;32233;49.500;7.764;2022-12-18T00:54:02;53.90;;;21.57;;
7432;SDS011;32233;49.500;7.764;2022-12-18T00:56:29;45.67;;;20.30;;
7432;SDS011;32233;49.500;7.764;2022-12-18T00:58:56;60.80;;;25.63;;
7432;SDS011;32233;49.500;7.764;2022-12-18T01:01:22;42.63;;;17.53;;
7432;SDS011;32233;49.500;7.764;2022-12-18T01:03:49;47.67;;;18.90;;
7432;SDS011;32233;49.500;7.764;2022-12-18T01:06:16;41.20;;;18.50;;
7432;SDS011;32233;49.500;7.764;2022-12-18T01:08:43;39.70;;;17.53;;
7432;SDS011;32233;49.500;7.764;2022-12-18T01:11:15;42.47;;;18.67;;
7432;SDS011;32233;49.500;7.764;2022-12-18T01:13:44;41.03;;;18.03;;
7432;SDS011;32233;49.500;7.764;2022-12-18T01:16:11;39.77;;;17.97;;
7432;SDS011;32233;49.500;7.764;2022-12-18T01:18:39;39.17;;;18.20;;
7432;SDS011;32233;49.500;7.764;2022-12-18T01:21:07;47.20;;;19.33;;
7432;SDS011;32233;49.500;7.764;2022-12-18T01:23:36;41.73;;;19.23;;
7432;SDS011;32233;49.500;7.764;2022-12-18T01:26:07;41.40;;;18.10;;
7432;SDS011;32233;49.500;7.764;2022-12-18T01:28:38;49.37;;;21.67;;
7432;SDS011;32233;49.500;7.764;2022-12-18T01:34:03;45.73;;;19.87;;
7432;SDS011;32233;49.500;7.764;2022-12-18T01:36:37;53.97;;;20.53;;
7432;SDS011;32233;49.500;7.764;2022-12-18T01:39:06;54.63;;;22.33;;
7432;SDS011;32233;49.500;7.764;2022-12-18T01:41:34;78.07;;;29.97;;
7432;SDS011;32233;49.500;7.764;2022-12-18T01:47:30;60.77;;;24.27;;
7432;SDS011;32233;49.500;7.764;2022-12-18T01:53:07;50.17;;;19.43;;
7432;SDS011;32233;49.500;7.764;2022-12-18T01:55:39;53.07;;;21.10;;
7432;SDS011;32233;49.500;7.764;2022-12-18T01:58:11;51.03;;;20.37;;
7432;SDS011;32233;49.500;7.764;2022-12-18T02:00:37;48.63;;;21.17;;
7432;SDS011;32233;49.500;7.764;2022-12-18T02:03:04;45.37;;;20.33;;
7432;SDS011;32233;49.500;7.764;2022-12-18T02:14:15;42.07;;;19.13;;
7432;SDS011;32233;49.500;7.764;2022-12-18T02:17:03;46.63;;;19.57;;
7432;SDS011;32233;49.500;7.764;2022-12-18T02:27:50;45.37;;;19.03;;
7432;SDS011;32233;49.500;7.764;2022-12-18T02:30:19;44.50;;;19.43;;
7432;SDS011;32233;49.500;7.764;2022-12-18T02:32:50;44.33;;;19.10;;
7432;SDS011;32233;49.500;7.764;2022-12-18T02:35:20;46.30;;;19.67;;
7432;SDS011;32233;49.500;7.764;2022-12-18T02:37:52;49.30;;;20.33;;
7432;SDS011;32233;49.500;7.764;2022-12-18T02:40:20;51.97;;;20.50;;
7432;SDS011;32233;49.500;7.764;2022-12-18T02:42:50;44.17;;;20.03;;
7432;SDS011;32233;49.500;7.764;2022-12-18T02:45:18;44.03;;;18.90;;
7432;SDS011;32233;49.500;7.764;2022-12-18T02:47:46;49.17;;;20.03;;
7432;SDS011;32233;49.500;7.764;2022-12-18T03:02:02;54.77;;;19.83;;
7432;SDS011;32233;49.500;7.764;2022-12-18T03:04:43;50.83;;;21.63;;
7432;SDS011;32233;49.500;7.764;2022-12-18T03:07:26;53.90;;;22.13;;
7432;SDS011;32233;49.500;7.764;2022-12-18T03:10:02;51.67;;;20.23;;
7432;SDS011;32233;49.500;7.764;2022-12-18T03:12:34;48.90;;;20.87;;
7432;SDS011;32233;49.500;7.764;2022-12-18T03:15:10;50.80;;;21.50;;
7432;SDS011;32233;49.500;7.764;2022-12-18T03:17:46;50.73;;;20.53;;
7432;SDS011;32233;49.500;7.764;2022-12-18T03:20:20;52.00;;;20.77;;
7432;SDS011;32233;49.500;7.764;2022-12-18T03:22:52;52.43;;;21.37;;
7432;SDS011;32233;49.500;7.764;2022-12-18T03:25:24;48.23;;;20.63;;
7432;SDS011;32233;49.500;7.764;2022-12-18T03:27:54;52.53;;;20.60;;
7432;SDS011;32233;49.500;7.764;2022-12-18T03:30:23;56.50;;;21.37;;
7432;SDS011;32233;49.500;7.764;2022-12-18T03:35:26;51.60;;;20.57;;
7432;SDS011;32233;49.500;7.764;2022-12-18T03:37:58;49.67;;;20.10;;
7432;SDS011;32233;49.500;7.764;2022-12-18T03:40:31;47.33;;;20.20;;
7432;SDS011;32233;49.500;7.764;2022-12-18T03:43:08;53.23;;;21.30;;
7432;SDS011;32233;49.500;7.764;2022-12-18T03:45:43;49.30;;;20.47;;
7432;SDS011;32233;49.500;7.764;2022-12-18T03:53:33;56.07;;;21.33;;
7432;SDS011;32233;49.500;7.764;2022-12-18T03:56:04;54.97;;;21.17;;
7432;SDS011;32233;49.500;7.764;2022-12-18T03:58:36;53.47;;;20.90;;
7432;SDS011;32233;49.500;7.764;2022-12-18T04:02:09;46.90;;;19.67;;
7432;SDS011;32233;49.500;7.764;2022-12-18T04:04:18;42.00;;;17.67;;
7432;SDS011;32233;49.500;7.764;2022-12-18T04:06:47;49.30;;;20.30;;
7432;SDS011;32233;49.500;7.764;2022-12-18T04:09:17;47.10;;;19.13;;
7432;SDS011;32233;49.500;7.764;2022-12-18T04:11:47;50.27;;;20.00;;
7432;SDS011;32233;49.500;7.764;2022-12-18T04:14:15;47.20;;;20.30;;
7432;SDS011;32233;49.500;7.764;2022-12-18T04:16:43;52.57;;;19.97;;
7432;SDS011;32233;49.500;7.764;2022-12-18T04:19:13;50.30;;;19.90;;
7432;SDS011;32233;49.500;7.764;2022-12-18T04:21:42;52.00;;;19.87;;
7432;SDS011;32233;49.500;7.764;2022-12-18T04:24:10;45.97;;;18.47;;
7432;SDS011;32233;49.500;7.764;2022-12-18T04:26:42;42.10;;;17.50;;
7432;SDS011;32233;49.500;7.764;2022-12-18T04:29:14;43.83;;;18.30;;
7432;SDS011;32233;49.500;7.764;2022-12-18T04:31:41;48.67;;;19.90;;
7432;SDS011;32233;49.500;7.764;2022-12-18T04:34:08;45.53;;;18.53;;
7432;SDS011;32233;49.500;7.764;2022-12-18T04:36:41;47.77;;;19.20;;
7432;SDS011;32233;49.500;7.764;2022-12-18T04:39:07;43.57;;;18.00;;
7432;SDS011;32233;49.500;7.764;2022-12-18T04:41:34;42.17;;;18.53;;
7432;SDS011;32233;49.500;7.764;2022-12-18T04:44:01;48.90;;;19.57;;
7432;SDS011;32233;49.500;7.764;2022-12-18T04:46:28;47.20;;;19.33;;
7432;SDS011;32233;49.500;7.764;2022-12-18T04:48:55;47.00;;;19.40;;
7432;SDS011;32233;49.500;7.764;2022-12-18T04:51:21;49.63;;;19.33;;
7432;SDS011;32233;49.500;7.764;2022-12-18T04:53:52;50.20;;;18.77;;
7432;SDS011;32233;49.500;7.764;2022-12-18T04:56:19;46.40;;;19.07;;
7432;SDS011;32233;49.500;7.764;2022-12-18T04:58:46;47.83;;;19.90;;
7432;SDS011;32233;49.500;7.764;2022-12-18T05:01:13;47.07;;;18.87;;
7432;SDS011;32233;49.500;7.764;2022-12-18T05:03:40;49.67;;;19.27;;
7432;SDS011;32233;49.500;7.764;2022-12-18T05:06:08;50.17;;;19.00;;
7432;SDS011;32233;49.500;7.764;2022-12-18T05:08:35;49.90;;;19.80;;
7432;SDS011;32233;49.500;7.764;2022-12-18T05:13:32;47.27;;;19.90;;
7432;SDS011;32233;49.500;7.764;2022-12-18T05:16:00;50.30;;;19.57;;
7432;SDS011;32233;49.500;7.764;2022-12-18T05:18:27;46.30;;;19.67;;
7432;SDS011;32233;49.500;7.764;2022-12-18T05:20:54;46.30;;;19.93;;
7432;SDS011;32233;49.500;7.764;2022-12-18T05:23:22;46.00;;;19.33;;
7432;SDS011;32233;49.500;7.764;2022-12-18T05:25:53;47.00;;;20.10;;
7432;SDS011;32233;49.500;7.764;2022-12-18T05:28:21;50.90;;;19.30;;
7432;SDS011;32233;49.500;7.764;2022-12-18T05:30:52;50.87;;;19.53;;
7432;SDS011;32233;49.500;7.764;2022-12-18T05:33:21;48.03;;;20.03;;
7432;SDS011;32233;49.500;7.764;2022-12-18T05:35:50;49.93;;;20.13;;
7432;SDS011;32233;49.500;7.764;2022-12-18T05:38:18;47.93;;;19.87;;
7432;SDS011;32233;49.500;7.764;2022-12-18T05:40:45;48.47;;;19.20;;
7432;SDS011;32233;49.500;7.764;2022-12-18T05:43:13;42.27;;;17.90;;
7432;SDS011;32233;49.500;7.764;2022-12-18T05:45:47;49.73;;;19.33;;
7432;SDS011;32233;49.500;7.764;2022-12-18T05:48:14;52.70;;;20.13;;
7432;SDS011;32233;49.500;7.764;2022-12-18T05:50:42;46.33;;;20.13;;
7432;SDS011;32233;49.500;7.764;2022-12-18T05:53:12;49.37;;;19.67;;
7432;SDS011;32233;49.500;7.764;2022-12-18T05:55:41;47.23;;;20.10;;
7432;SDS011;32233;49.500;7.764;2022-12-18T05:58:09;46.67;;;19.37;;
7432;SDS011;32233;49.500;7.764;2022-12-18T06:00:38;44.87;;;18.63;;
7432;SDS011;32233;49.500;7.764;2022-12-18T06:03:08;46.67;;;19.07;;
7432;SDS011;32233;49.500;7.764;2022-12-18T06:05:37;46.90;;;18.90;;
7432;SDS011;32233;49.500;7.764;2022-12-18T06:08:05;43.87;;;18.70;;
7432;SDS011;32233;49.500;7.764;2022-12-18T06:10:32;42.60;;;18.73;;
7432;SDS011;32233;49.500;7.764;2022-12-18T06:12:59;43.43;;;18.27;;
7432;SDS011;32233;49.500;7.764;2022-12-18T06:15:26;40.17;;;17.43;;
7432;SDS011;32233;49.500;7.764;2022-12-18T06:17:52;43.07;;;17.00;;
7432;SDS011;32233;49.500;7.764;2022-12-18T06:20:19;39.80;;;17.17;;
7432;SDS011;32233;49.500;7.764;2022-12-18T06:22:45;45.43;;;18.30;;
7432;SDS011;32233;49.500;7.764;2022-12-18T06:25:12;42.33;;;17.87;;
7432;SDS011;32233;49.500;7.764;2022-12-18T06:27:38;50.40;;;19.50;;
7432;SDS011;32233;49.500;7.764;2022-12-18T06:30:07;41.60;;;18.10;;
7432;SDS011;32233;49.500;7.764;2022-12-18T06:32:34;49.70;;;19.33;;
7432;SDS011;32233;49.500;7.764;2022-12-18T06:35:01;48.40;;;19.00;;
7432;SDS011;32233;49.500;7.764;2022-12-18T06:37:27;48.43;;;19.30;;
7432;SDS011;32233;49.500;7.764;2022-12-18T06:39:54;44.63;;;18.63;;
7432;SDS011;32233;49.500;7.764;2022-12-18T06:42:20;46.20;;;18.30;;
7432;SDS011;32233;49.500;7.764;2022-12-18T06:44:47;43.53;;;17.20;;
7432;SDS011;32233;49.500;7.764;2022-12-18T06:47:13;47.57;;;18.77;;
7432;SDS011;32233;49.500;7.764;2022-12-18T06:49:40;48.83;;;18.57;;
7432;SDS011;32233;49.500;7.764;2022-12-18T06:52:07;45.23;;;18.10;;
7432;SDS011;32233;49.500;7.764;2022-12-18T06:54:33;45.77;;;19.37;;
7432;SDS011;32233;49.500;7.764;2022-12-18T06:56:59;46.33;;;19.03;;
7432;SDS011;32233;49.500;7.764;2022-12-18T06:59:26;48.37;;;21.07;;
7432;SDS011;32233;49.500;7.764;2022-12-18T07:01:53;50.13;;;20.53;;
7432;SDS011;32233;49.500;7.764;2022-12-18T07:04:20;47.53;;;20.37;;
7432;SDS011;32233;49.500;7.764;2022-12-18T07:06:46;49.70;;;20.50;;
7432;SDS011;32233;49.500;7.764;2022-12-18T07:09:12;49.00;;;20.03;;
7432;SDS011;32233;49.500;7.764;2022-12-18T07:11:39;42.47;;;18.03;;
7432;SDS011;32233;49.500;7.764;2022-12-18T07:14:06;49.40;;;19.33;;
7432;SDS011;32233;49.500;7.764;2022-12-18T07:16:32;52.60;;;20.70;;
7432;SDS011;32233;49.500;7.764;2022-12-18T07:18:59;43.03;;;19.80;;
7432;SDS011;32233;49.500;7.764;2022-12-18T07:21:25;47.63;;;20.00;;
7432;SDS011;32233;49.500;7.764;2022-12-18T07:23:52;49.53;;;19.30;;
7432;SDS011;32233;49.500;7.764;2022-12-18T07:26:19;46.20;;;19.20;;
7432;SDS011;32233;49.500;7.764;2022-12-18T07:28:46;43.23;;;19.10;;
7432;SDS011;32233;49.500;7.764;2022-12-18T07:31:15;47.57;;;20.40;;
7432;SDS011;32233;49.500;7.764;2022-12-18T07:33:43;46.73;;;20.27;;
7432;SDS011;32233;49.500;7.764;2022-12-18T07:36:11;46.70;;;20.17;;
7432;SDS011;32233;49.500;7.764;2022-12-18T07:38:38;44.77;;;20.40;;
7432;SDS011;32233;49.500;7.764;2022-12-18T07:41:05;46.37;;;20.30;;
7432;SDS011;32233;49.500;7.764;2022-12-18T07:43:36;43.60;;;19.50;;
7432;SDS011;32233;49.500;7.764;2022-12-18T07:46:05;51.23;;;20.40;;
7432;SDS011;32233;49.500;7.764;2022-12-18T07:48:32;50.87;;;20.53;;
7432;SDS011;32233;49.500;7.764;2022-12-18T07:50:59;45.43;;;20.40;;
7432;SDS011;32233;49.500;7.764;2022-12-18T07:53:26;45.90;;;20.60;;
7432;SDS011;32233;49.500;7.764;2022-12-18T07:55:56;48.60;;;20.37;;
7432;SDS011;32233;49.500;7.764;2022-12-18T07:58:43;52.10;;;21.03;;
7432;SDS011;32233;49.500;7.764;2022-12-18T08:01:11;51.17;;;22.37;;
7432;SDS011;32233;49.500;7.764;2022-12-18T08:03:39;46.33;;;21.50;;
7432;SDS011;32233;49.500;7.764;2022-12-18T08:06:08;52.00;;;21.53;;
7432;SDS011;32233;49.500;7.764;2022-12-18T08:08:35;53.03;;;22.37;;
7432;SDS011;32233;49.500;7.764;2022-12-18T08:11:02;50.80;;;22.03;;
7432;SDS011;32233;49.500;7.764;2022-12-18T08:13:29;53.60;;;22.60;;
7432;SDS011;32233;49.500;7.764;2022-12-18T08:15:59;60.13;;;25.93;;
7432;SDS011;32233;49.500;7.764;2022-12-18T08:18:36;56.90;;;24.60;;
7432;SDS011;32233;49.500;7.764;2022-12-18T08:21:16;57.97;;;25.87;;
7432;SDS011;32233;49.500;7.764;2022-12-18T08:23:47;66.17;;;31.13;;
7432;SDS011;32233;49.500;7.764;2022-12-18T08:26:15;65.17;;;27.97;;
7432;SDS011;32233;49.500;7.764;2022-12-18T08:28:42;57.90;;;27.00;;
7432;SDS011;32233;49.500;7.764;2022-12-18T08:31:09;70.87;;;32.37;;
7432;SDS011;32233;49.500;7.764;2022-12-18T08:33:36;67.60;;;28.63;;
7432;SDS011;32233;49.500;7.764;2022-12-18T08:36:05;56.53;;;24.73;;
7432;SDS011;32233;49.500;7.764;2022-12-18T08:38:32;54.13;;;24.23;;
7432;SDS011;32233;49.500;7.764;2022-12-18T08:40:59;56.77;;;24.40;;
7432;SDS011;32233;49.500;7.764;2022-12-18T08:43:30;57.20;;;25.40;;
7432;SDS011;32233;49.500;7.764;2022-12-18T08:46:15;54.67;;;23.47;;
7432;SDS011;32233;49.500;7.764;2022-12-18T08:48:43;55.87;;;25.27;;
7432;SDS011;32233;49.500;7.764;2022-12-18T08:51:10;64.07;;;26.20;;
7432;SDS011;32233;49.500;7.764;2022-12-18T08:53:37;62.27;;;25.60;;
7432;SDS011;32233;49.500;7.764;2022-12-18T08:56:05;58.57;;;26.97;;
7432;SDS011;32233;49.500;7.764;2022-12-18T08:58:31;55.30;;;24.80;;
7432;SDS011;32233;49.500;7.764;2022-12-18T09:01:02;59.57;;;25.67;;
7432;SDS011;32233;49.500;7.764;2022-12-18T09:03:29;60.37;;;24.60;;
7432;SDS011;32233;49.500;7.764;2022-12-18T09:05:56;53.93;;;25.67;;
7432;SDS011;32233;49.500;7.764;2022-12-18T09:08:22;63.53;;;26.23;;
7432;SDS011;32233;49.500;7.764;2022-12-18T09:10:49;60.00;;;26.37;;
7432;SDS011;32233;49.500;7.764;2022-12-18T09:13:18;59.47;;;26.43;;
7432;SDS011;32233;49.500;7.764;2022-12-18T09:15:45;53.33;;;24.77;;
7432;SDS011;32233;49.500;7.764;2022-12-18T09:18:14;59.80;;;25.57;;
7432;SDS011;32233;49.500;7.764;2022-12-18T09:20:42;62.00;;;26.07;;
7432;SDS011;32233;49.500;7.764;2022-12-18T09:23:10;59.97;;;26.00;;
7432;SDS011;32233;49.500;7.764;2022-12-18T09:25:37;60.33;;;26.23;;
7432;SDS011;32233;49.500;7.764;2022-12-18T09:28:05;60.00;;;26.23;;
7432;SDS011;32233;49.500;7.764;2022-12-18T09:30:37;56.70;;;25.67;;
7432;SDS011;32233;49.500;7.764;2022-12-18T09:33:04;55.47;;;26.30;;
7432;SDS011;32233;49.500;7.764;2022-12-18T09:35:32;53.37;;;25.33;;
7432;SDS011;32233;49.500;7.764;2022-12-18T09:38:01;57.50;;;26.20;;
7432;SDS011;32233;49.500;7.764;2022-12-18T09:40:28;49.53;;;25.30;;
7432;SDS011;32233;49.500;7.764;2022-12-18T09:43:03;56.47;;;28.37;;
7432;SDS011;32233;49.500;7.764;2022-12-18T09:45:43;53.77;;;26.50;;
7432;SDS011;32233;49.500;7.764;2022-12-18T09:48:16;53.10;;;26.10;;
7432;SDS011;32233;49.500;7.764;2022-12-18T09:50:48;51.40;;;23.47;;
7432;SDS011;32233;49.500;7.764;2022-12-18T09:53:19;53.00;;;24.30;;
7432;SDS011;32233;49.500;7.764;2022-12-18T09:55:50;48.03;;;23.80;;
7432;SDS011;32233;49.500;7.764;2022-12-18T09:58:22;48.70;;;24.63;;
7432;SDS011;32233;49.500;7.764;2022-12-18T10:00:54;49.37;;;23.23;;
7432;SDS011;32233;49.500;7.764;2022-12-18T10:03:22;46.67;;;23.90;;
7432;SDS011;32233;49.500;7.764;2022-12-18T10:19:32;54.40;;;26.00;;
7432;SDS011;32233;49.500;7.764;2022-12-18T10:24:39;48.97;;;24.70;;
7432;SDS011;32233;49.500;7.764;2022-12-18T10:27:16;47.93;;;23.50;;
7432;SDS011;32233;49.500;7.764;2022-12-18T10:29:44;48.13;;;24.93;;
7432;SDS011;32233;49.500;7.764;2022-12-18T10:32:16;49.17;;;24.67;;
7432;SDS011;32233;49.500;7.764;2022-12-18T10:34:48;48.50;;;24.30;;
7432;SDS011;32233;49.500;7.764;2022-12-18T10:37:25;49.20;;;25.63;;
7432;SDS011;32233;49.500;7.764;2022-12-18T10:40:13;51.40;;;25.37;;
7432;SDS011;32233;49.500;7.764;2022-12-18T10:42:47;50.30;;;25.67;;
7432;SDS011;32233;49.500;7.764;2022-12-18T10:45:30;43.40;;;23.23;;
7432;SDS011;32233;49.500;7.764;2022-12-18T10:47:57;44.37;;;24.50;;
7432;SDS011;32233;49.500;7.764;2022-12-18T10:50:25;44.23;;;25.23;;
7432;SDS011;32233;49.500;7.764;2022-12-18T10:53:18;48.67;;;25.20;;
7432;SDS011;32233;49.500;7.764;2022-12-18T10:55:47;50.10;;;24.33;;
7432;SDS011;32233;49.500;7.764;2022-12-18T10:58:31;51.57;;;26.13;;
7432;SDS011;32233;49.500;7.764;2022-12-18T11:03:43;46.20;;;24.33;;
7432;SDS011;32233;49.500;7.764;2022-12-18T11:06:28;48.53;;;24.83;;
7432;SDS011;32233;49.500;7.764;2022-12-18T11:08:59;43.17;;;23.90;;
7432;SDS011;32233;49.500;7.764;2022-12-18T11:11:31;45.27;;;23.80;;
7432;SDS011;32233;49.500;7.764;2022-12-18T11:16:29;49.87;;;24.73;;
7432;SDS011;32233;49.500;7.764;2022-12-18T11:19:45;45.83;;;23.87;;
7432;SDS011;32233;49.500;7.764;2022-12-18T11:22:17;45.60;;;22.80;;
7432;SDS011;32233;49.500;7.764;2022-12-18T11:24:54;47.40;;;23.37;;
7432;SDS011;32233;49.500;7.764;2022-12-18T11:27:47;44.77;;;21.77;;
7432;SDS011;32233;49.500;7.764;2022-12-18T11:32:56;47.93;;;23.43;;
7432;SDS011;32233;49.500;7.764;2022-12-18T11:35:35;49.30;;;24.17;;
7432;SDS011;32233;49.500;7.764;2022-12-18T11:46:15;51.23;;;25.57;;
7432;SDS011;32233;49.500;7.764;2022-12-18T11:48:53;53.87;;;24.97;;
7432;SDS011;32233;49.500;7.764;2022-12-18T11:51:32;50.03;;;24.87;;
7432;SDS011;32233;49.500;7.764;2022-12-18T11:54:10;49.47;;;24.60;;
7432;SDS011;32233;49.500;7.764;2022-12-18T11:59:15;48.90;;;23.90;;
7432;SDS011;32233;49.500;7.764;2022-12-18T12:02:12;52.97;;;25.57;;
7432;SDS011;32233;49.500;7.764;2022-12-18T12:04:52;52.67;;;25.33;;
7432;SDS011;32233;49.500;7.764;2022-12-18T12:07:45;56.07;;;27.03;;
7432;SDS011;32233;49.500;7.764;2022-12-18T12:25:28;48.93;;;24.03;;
7432;SDS011;32233;49.500;7.764;2022-12-18T12:33:46;45.90;;;24.03;;
7432;SDS011;32233;49.500;7.764;2022-12-18T12:36:38;48.20;;;24.83;;
7432;SDS011;32233;49.500;7.764;2022-12-18T12:39:17;51.93;;;24.47;;
7432;SDS011;32233;49.500;7.764;2022-12-18T12:41:48;48.53;;;24.57;;
7432;SDS011;32233;49.500;7.764;2022-12-18T12:44:35;52.20;;;26.27;;
7432;SDS011;32233;49.500;7.764;2022-12-18T12:47:18;53.37;;;24.67;;
7432;SDS011;32233;49.500;7.764;2022-12-18T12:49:52;50.03;;;25.57;;
7432;SDS011;32233;49.500;7.764;2022-12-18T12:55:05;52.17;;;26.83;;
7432;SDS011;32233;49.500;7.764;2022-12-18T12:57:43;53.27;;;26.17;;
7432;SDS011;32233;49.500;7.764;2022-12-18T13:00:18;55.07;;;25.60;;
7432;SDS011;32233;49.500;7.764;2022-12-18T13:05:40;55.20;;;26.93;;
7432;SDS011;32233;49.500;7.764;2022-12-18T13:10:50;54.80;;;25.77;;
7432;SDS011;32233;49.500;7.764;2022-12-18T13:13:52;53.10;;;26.17;;
7432;SDS011;32233;49.500;7.764;2022-12-18T13:16:22;56.27;;;27.43;;
7432;SDS011;32233;49.500;7.764;2022-12-18T13:18:56;51.07;;;26.67;;
7432;SDS011;32233;49.500;7.764;2022-12-18T13:21:26;55.37;;;26.17;;
7432;SDS011;32233;49.500;7.764;2022-12-18T13:23:55;58.60;;;27.23;;
7432;SDS011;32233;49.500;7.764;2022-12-18T13:28:55;58.87;;;27.80;;
7432;SDS011;32233;49.500;7.764;2022-12-18T13:34:28;55.00;;;25.77;;
7432;SDS011;32233;49.500;7.764;2022-12-18T13:39:59;55.77;;;27.13;;
7432;SDS011;32233;49.500;7.764;2022-12-18T13:48:15;53.80;;;27.47;;
7432;SDS011;32233;49.500;7.764;2022-12-18T13:50:47;58.60;;;27.43;;
7432;SDS011;32233;49.500;7.764;2022-12-18T13:53:18;60.63;;;28.53;;
7432;SDS011;32233;49.500;7.764;2022-12-18T13:55:50;54.90;;;26.47;;
7432;SDS011;32233;49.500;7.764;2022-12-18T13:58:17;60.57;;;28.73;;
7432;SDS011;32233;49.500;7.764;2022-12-18T14:00:44;58.03;;;27.43;;
7432;SDS011;32233;49.500;7.764;2022-12-18T14:03:16;55.23;;;26.33;;
7432;SDS011;32233;49.500;7.764;2022-12-18T14:06:01;58.80;;;26.63;;
7432;SDS011;32233;49.500;7.764;2022-12-18T14:08:36;56.57;;;27.53;;
7432;SDS011;32233;49.500;7.764;2022-12-18T14:11:06;57.93;;;27.17;;
7432;SDS011;32233;49.500;7.764;2022-12-18T14:13:37;61.63;;;27.60;;
7432;SDS011;32233;49.500;7.764;2022-12-18T14:16:11;61.30;;;28.83;;
7432;SDS011;32233;49.500;7.764;2022-12-18T14:18:54;58.40;;;28.30;;
7432;SDS011;32233;49.500;7.764;2022-12-18T14:21:36;58.07;;;28.27;;
7432;SDS011;32233;49.500;7.764;2022-12-18T14:24:05;64.43;;;29.53;;
7432;SDS011;32233;49.500;7.764;2022-12-18T14:26:44;63.90;;;29.87;;
7432;SDS011;32233;49.500;7.764;2022-12-18T14:29:28;59.97;;;29.27;;
7432;SDS011;32233;49.500;7.764;2022-12-18T14:34:44;60.70;;;28.40;;
7432;SDS011;32233;49.500;7.764;2022-12-18T14:37:16;62.93;;;29.23;;
7432;SDS011;32233;49.500;7.764;2022-12-18T14:39:57;64.97;;;29.53;;
7432;SDS011;32233;49.500;7.764;2022-12-18T14:42:36;68.27;;;29.37;;
7432;SDS011;32233;49.500;7.764;2022-12-18T14:48:18;61.20;;;28.40;;
7432;SDS011;32233;49.500;7.764;2022-12-18T14:50:59;66.70;;;30.47;;
7432;SDS011;32233;49.500;7.764;2022-12-18T14:53:34;67.70;;;29.33;;
7432;SDS011;32233;49.500;7.764;2022-12-18T14:56:03;64.93;;;29.97;;
7432;SDS011;32233;49.500;7.764;2022-12-18T14:58:44;58.27;;;28.93;;
7432;SDS011;32233;49.500;7.764;2022-12-18T15:01:19;58.10;;;29.93;;
7432;SDS011;32233;49.500;7.764;2022-12-18T15:03:47;65.20;;;32.87;;
7432;SDS011;32233;49.500;7.764;2022-12-18T15:06:15;61.70;;;33.47;;
7432;SDS011;32233;49.500;7.764;2022-12-18T15:08:50;68.87;;;33.40;;
7432;SDS011;32233;49.500;7.764;2022-12-18T15:11:26;61.93;;;29.83;;
7432;SDS011;32233;49.500;7.764;2022-12-18T15:13:57;62.83;;;30.30;;
7432;SDS011;32233;49.500;7.764;2022-12-18T15:16:24;62.97;;;30.07;;
7432;SDS011;32233;49.500;7.764;2022-12-18T15:18:51;68.50;;;31.50;;
7432;SDS011;32233;49.500;7.764;2022-12-18T15:21:19;67.77;;;31.73;;
7432;SDS011;32233;49.500;7.764;2022-12-18T15:23:48;69.23;;;31.67;;
7432;SDS011;32233;49.500;7.764;2022-12-18T15:26:18;65.30;;;30.23;;
7432;SDS011;32233;49.500;7.764;2022-12-18T15:28:51;64.33;;;30.10;;
7432;SDS011;32233;49.500;7.764;2022-12-18T15:31:31;70.13;;;32.37;;
7432;SDS011;32233;49.500;7.764;2022-12-18T15:34:05;64.07;;;28.50;;
7432;SDS011;32233;49.500;7.764;2022-12-18T15:36:40;68.80;;;32.60;;
7432;SDS011;32233;49.500;7.764;2022-12-18T15:39:09;84.07;;;39.93;;
7432;SDS011;32233;49.500;7.764;2022-12-18T15:41:37;68.73;;;32.47;;
7432;SDS011;32233;49.500;7.764;2022-12-18T15:44:16;65.43;;;29.87;;
7432;SDS011;32233;49.500;7.764;2022-12-18T15:46:48;60.43;;;28.73;;
7432;SDS011;32233;49.500;7.764;2022-12-18T15:49:15;62.33;;;31.57;;
7432;SDS011;32233;49.500;7.764;2022-12-18T15:51:41;61.63;;;28.63;;
7432;SDS011;32233;49.500;7.764;2022-12-18T15:54:10;68.97;;;30.13;;
7432;SDS011;32233;49.500;7.764;2022-12-18T15:56:40;63.40;;;29.33;;
7432;SDS011;32233;49.500;7.764;2022-12-18T15:59:25;57.17;;;29.40;;
7432;SDS011;32233;49.500;7.764;2022-12-18T16:01:51;61.03;;;28.90;;
7432;SDS011;32233;49.500;7.764;2022-12-18T16:04:22;56.47;;;26.50;;
7432;SDS011;32233;49.500;7.764;2022-12-18T16:06:49;59.53;;;28.73;;
7432;SDS011;32233;49.500;7.764;2022-12-18T16:09:37;63.20;;;27.43;;
7432;SDS011;32233;49.500;7.764;2022-12-18T16:12:05;60.37;;;27.40;;
7432;SDS011;32233;49.500;7.764;2022-12-18T16:14:33;55.73;;;26.70;;
7432;SDS011;32233;49.500;7.764;2022-12-18T16:17:00;60.50;;;28.17;;
7432;SDS011;32233;49.500;7.764;2022-12-18T16:19:29;58.43;;;26.80;;
7432;SDS011;32233;49.500;7.764;2022-12-18T16:21:56;63.33;;;27.90;;
7432;SDS011;32233;49.500;7.764;2022-12-18T16:24:28;59.37;;;27.17;;
7432;SDS011;32233;49.500;7.764;2022-12-18T16:26:57;62.77;;;27.83;;
7432;SDS011;32233;49.500;7.764;2022-12-18T16:29:26;54.53;;;26.30;;
7432;SDS011;32233;49.500;7.764;2022-12-18T16:31:58;58.87;;;27.97;;
7432;SDS011;32233;49.500;7.764;2022-12-18T16:34:27;62.70;;;28.27;;
7432;SDS011;32233;49.500;7.764;2022-12-18T16:37:02;55.87;;;27.40;;
7432;SDS011;32233;49.500;7.764;2022-12-18T16:39:32;62.07;;;27.47;;
7432;SDS011;32233;49.500;7.764;2022-12-18T16:42:04;59.80;;;26.90;;
7432;SDS011;32233;49.500;7.764;2022-12-18T16:44:33;55.07;;;26.17;;
7432;SDS011;32233;49.500;7.764;2022-12-18T16:47:01;56.87;;;26.13;;
7432;SDS011;32233;49.500;7.764;2022-12-18T16:49:28;64.70;;;28.03;;
7432;SDS011;32233;49.500;7.764;2022-12-18T16:51:55;61.00;;;28.13;;
7432;SDS011;32233;49.500;7.764;2022-12-18T16:54:22;56.27;;;25.90;;
7432;SDS011;32233;49.500;7.764;2022-12-18T16:56:49;55.37;;;27.23;;
7432;SDS011;32233;49.500;7.764;2022-12-18T16:59:17;66.40;;;31.57;;
7432;SDS011;32233;49.500;7.764;2022-12-18T17:01:45;107.83;;;51.33;;
7432;SDS011;32233;49.500;7.764;2022-12-18T17:04:12;60.33;;;29.03;;
7432;SDS011;32233;49.500;7.764;2022-12-18T17:06:40;61.80;;;28.57;;
7432;SDS011;32233;49.500;7.764;2022-12-18T17:09:12;58.57;;;27.50;;